createdAt,value
2023-06-07T00:00:11.406Z,40.22
2023-06-07T00:02:45.017Z,40.33
2023-06-07T00:05:14.698Z,40.57
2023-06-07T00:07:44.478Z,40.76
2023-06-07T00:10:13.575Z,40.82
2023-06-07T00:12:43.451Z,40.88
2023-06-07T00:15:13.474Z,40.99
2023-06-07T00:17:46.793Z,41.01
2023-06-07T00:20:16.410Z,40.84
2023-06-07T00:22:45.737Z,40.89
2023-06-07T00:25:14.767Z,40.99
2023-06-07T00:27:43.557Z,40.75
2023-06-07T00:30:13.227Z,40.71
2023-06-07T00:32:42.194Z,40.69
2023-06-07T00:35:13.585Z,40.98
2023-06-07T00:37:43.640Z,40.92
2023-06-07T00:40:13.155Z,40.71
2023-06-07T00:42:42.245Z,40.54
2023-06-07T00:45:11.957Z,40.26
2023-06-07T00:47:41.410Z,40.05
2023-06-07T00:50:10.994Z,39.76
2023-06-07T00:52:40.443Z,39.70
2023-06-07T00:55:11.174Z,39.66
2023-06-07T00:57:42.624Z,39.37
2023-06-07T01:00:15.322Z,39.41
2023-06-07T01:02:49.070Z,39.27
2023-06-07T01:05:19.327Z,39.00
2023-06-07T01:07:52.205Z,39.06
2023-06-07T01:10:21.379Z,38.85
2023-06-07T01:12:55.949Z,38.78
2023-06-07T01:15:26.306Z,38.62
2023-06-07T01:17:55.678Z,38.43
2023-06-07T01:20:27.554Z,38.02
2023-06-07T01:22:59.601Z,37.63
2023-06-07T01:25:28.670Z,36.86
2023-06-07T01:27:58.568Z,35.98
2023-06-07T01:30:33.125Z,35.31
2023-06-07T01:33:06.647Z,35.10
2023-06-07T01:35:36.608Z,35.08
2023-06-07T01:38:08.692Z,34.83
2023-06-07T01:40:39.710Z,35.32
2023-06-07T01:43:09.874Z,34.87
2023-06-07T01:45:39.321Z,34.51
2023-06-07T01:48:08.750Z,34.40
2023-06-07T01:50:37.719Z,34.23
2023-06-07T01:53:07.843Z,33.74
2023-06-07T01:55:37.769Z,33.19
2023-06-07T01:58:30.896Z,32.53
2023-06-07T02:01:25.067Z,32.36
2023-06-07T02:03:56.585Z,31.77
2023-06-07T02:06:36.318Z,31.27
2023-06-07T02:09:11.663Z,30.50
2023-06-07T02:11:41.974Z,30.12
2023-06-07T02:14:11.805Z,29.27
2023-06-07T02:16:42.290Z,28.87
2023-06-07T02:19:15.714Z,28.20
2023-06-07T02:21:53.748Z,27.83
2023-06-07T02:24:22.634Z,27.15
2023-06-07T02:26:52.479Z,26.05
2023-06-07T02:29:22.700Z,25.82
2023-06-07T02:31:52.269Z,25.62
2023-06-07T02:34:21.162Z,25.18
2023-06-07T02:36:50.076Z,24.80
2023-06-07T02:39:19.050Z,24.79
2023-06-07T02:41:47.974Z,23.79
2023-06-07T02:44:17.015Z,24.11
2023-06-07T02:46:46.441Z,23.83
2023-06-07T02:49:15.411Z,23.14
2023-06-07T02:51:44.840Z,23.27
2023-06-07T02:54:15.217Z,22.80
2023-06-07T02:56:44.242Z,22.79
2023-06-07T02:59:13.318Z,22.32
2023-06-07T03:01:46.599Z,21.79
2023-06-07T03:04:16.716Z,21.67
2023-06-07T03:06:47.969Z,21.62
2023-06-07T03:09:26.663Z,21.33
2023-06-07T03:11:56.092Z,21.43
2023-06-07T03:14:29.043Z,20.86
2023-06-07T03:16:58.351Z,20.56
2023-06-07T03:19:27.303Z,20.04
2023-06-07T03:21:58.863Z,20.12
2023-06-07T03:24:29.946Z,19.84
2023-06-07T03:26:59.255Z,19.72
2023-06-07T03:29:28.896Z,19.26
2023-06-07T03:31:58.248Z,18.96
2023-06-07T03:34:31.453Z,19.12
2023-06-07T03:37:02.490Z,18.49
2023-06-07T03:39:33.325Z,18.51
2023-06-07T03:42:02.651Z,18.49
2023-06-07T03:44:31.747Z,17.97
2023-06-07T03:47:00.832Z,17.75
2023-06-07T03:49:31.618Z,17.83
2023-06-07T03:52:00.745Z,17.67
2023-06-07T03:54:35.303Z,17.30
2023-06-07T03:57:05.754Z,17.08
2023-06-07T03:59:38.478Z,17.38
2023-06-07T04:02:09.050Z,16.88
2023-06-07T04:04:38.604Z,17.17
2023-06-07T04:07:09.350Z,16.65
2023-06-07T04:09:39.268Z,16.41
2023-06-07T04:12:08.527Z,16.46
2023-06-07T04:14:37.729Z,16.21
2023-06-07T04:17:09.629Z,15.78
2023-06-07T04:19:48.196Z,15.63
2023-06-07T04:22:21.788Z,16.20
2023-06-07T04:24:51.842Z,16.27
2023-06-07T04:27:21.102Z,16.59
2023-06-07T04:29:51.096Z,16.25
2023-06-07T04:32:20.520Z,16.38
2023-06-07T04:34:53.381Z,16.51
2023-06-07T04:37:26.595Z,16.23
2023-06-07T04:39:57.432Z,16.13
2023-06-07T04:42:26.935Z,15.93
2023-06-07T04:44:56.028Z,16.07
2023-06-07T04:47:26.713Z,15.37
2023-06-07T04:49:56.767Z,15.31
2023-06-07T04:52:29.207Z,15.47
2023-06-07T04:55:03.265Z,15.23
2023-06-07T04:57:34.470Z,15.31
2023-06-07T05:00:08.094Z,15.33
2023-06-07T05:02:45.817Z,15.01
2023-06-07T05:05:17.636Z,15.13
2023-06-07T05:07:48.556Z,14.92
2023-06-07T05:10:19.241Z,15.21
2023-06-07T05:12:49.582Z,15.11
2023-06-07T05:15:19.567Z,15.23
2023-06-07T05:17:48.511Z,15.69
2023-06-07T05:20:18.280Z,15.60
2023-06-07T05:22:47.493Z,15.76
2023-06-07T05:25:16.446Z,15.60
2023-06-07T05:27:47.080Z,15.46
2023-06-07T05:30:22.092Z,15.13
2023-06-07T05:32:53.318Z,15.29
2023-06-07T05:35:22.428Z,15.57
2023-06-07T05:37:52.054Z,15.80
2023-06-07T05:40:21.812Z,15.15
2023-06-07T05:42:52.000Z,14.99
2023-06-07T05:45:22.189Z,14.74
2023-06-07T05:47:52.381Z,14.23
2023-06-07T05:50:22.666Z,14.98
2023-06-07T05:52:59.077Z,15.06
2023-06-07T05:55:30.160Z,15.13
2023-06-07T05:57:59.309Z,15.14
2023-06-07T06:00:30.316Z,15.37
2023-06-07T06:03:02.685Z,15.36
2023-06-07T06:05:32.099Z,15.30
2023-06-07T06:08:01.271Z,15.79
2023-06-07T06:10:32.443Z,15.20
2023-06-07T06:13:02.759Z,15.65
2023-06-07T06:15:31.792Z,15.35
2023-06-07T06:18:01.013Z,14.85
2023-06-07T06:20:30.020Z,15.11
2023-06-07T06:22:58.979Z,15.16
2023-06-07T06:25:27.919Z,15.16
2023-06-07T06:27:56.967Z,15.61
2023-06-07T06:30:28.060Z,15.27
2023-06-07T06:32:58.928Z,15.67
2023-06-07T06:35:29.465Z,15.88
2023-06-07T06:37:58.477Z,16.60
2023-06-07T06:40:28.362Z,16.35
2023-06-07T06:42:57.415Z,15.79
2023-06-07T06:45:36.115Z,15.95
2023-06-07T06:48:05.768Z,16.26
2023-06-07T06:50:35.058Z,15.97
2023-06-07T06:53:04.687Z,15.37
2023-06-07T06:55:33.608Z,15.61
2023-06-07T06:58:05.798Z,15.68
2023-06-07T07:00:37.432Z,15.89
2023-06-07T07:03:07.485Z,17.16
2023-06-07T07:05:36.682Z,18.63
2023-06-07T07:08:06.211Z,19.50
2023-06-07T07:10:35.157Z,20.16
2023-06-07T07:13:04.278Z,19.63
2023-06-07T07:15:33.262Z,18.96
2023-06-07T07:18:07.216Z,19.40
2023-06-07T07:20:37.938Z,19.74
2023-06-07T07:23:07.087Z,19.86
2023-06-07T07:25:35.935Z,19.34
2023-06-07T07:28:05.058Z,18.74
2023-06-07T07:30:33.994Z,18.12
2023-06-07T07:33:03.134Z,17.89
2023-06-07T07:35:32.220Z,17.81
2023-06-07T07:38:02.513Z,17.23
2023-06-07T07:40:31.884Z,17.02
2023-06-07T07:43:01.357Z,17.11
2023-06-07T07:45:30.231Z,17.49
2023-06-07T07:47:59.137Z,19.05
2023-06-07T07:50:28.356Z,20.38
2023-06-07T07:52:58.427Z,21.37
2023-06-07T07:55:27.593Z,22.03
2023-06-07T07:57:56.691Z,23.01
2023-06-07T08:00:26.803Z,23.24
2023-06-07T08:02:56.522Z,23.95
2023-06-07T08:05:25.535Z,24.08
2023-06-07T08:07:54.722Z,24.73
2023-06-07T08:10:26.767Z,24.40
2023-06-07T08:12:55.766Z,25.33
2023-06-07T08:15:24.758Z,25.51
2023-06-07T08:17:53.784Z,25.89
2023-06-07T08:20:23.165Z,26.31
2023-06-07T08:22:52.214Z,27.18
2023-06-07T08:25:21.204Z,27.73
2023-06-07T08:27:50.600Z,28.09
2023-06-07T08:30:19.666Z,28.88
2023-06-07T08:32:48.811Z,28.82
2023-06-07T08:35:20.117Z,28.98
2023-06-07T08:37:49.048Z,29.68
2023-06-07T08:40:21.282Z,29.73
2023-06-07T08:42:50.449Z,28.91
2023-06-07T08:45:19.741Z,28.99
2023-06-07T08:47:50.219Z,28.99
2023-06-07T08:50:23.893Z,29.01
2023-06-07T08:52:57.183Z,28.63
2023-06-07T08:55:27.429Z,28.84
2023-06-07T08:57:57.241Z,28.83
2023-06-07T09:00:27.571Z,29.25
2023-06-07T09:02:56.782Z,29.27
2023-06-07T09:05:25.786Z,29.38
2023-06-07T09:07:55.031Z,29.25
2023-06-07T09:10:24.050Z,29.05
2023-06-07T09:12:53.215Z,29.20
2023-06-07T09:15:23.452Z,29.27
2023-06-07T09:17:56.719Z,29.52
2023-06-07T09:20:30.585Z,29.31
2023-06-07T09:23:02.645Z,29.08
2023-06-07T09:25:32.310Z,29.41
2023-06-07T09:28:03.519Z,29.55
2023-06-07T09:30:32.820Z,29.74
2023-06-07T09:33:01.820Z,30.16
2023-06-07T09:35:30.919Z,30.55
2023-06-07T09:38:01.215Z,30.59
2023-06-07T09:40:30.367Z,30.82
2023-06-07T09:43:01.259Z,30.93
2023-06-07T09:45:30.755Z,31.17
2023-06-07T09:48:07.179Z,31.06
2023-06-07T09:50:36.340Z,31.00
2023-06-07T09:53:05.442Z,31.31
2023-06-07T09:55:34.366Z,31.63
2023-06-07T09:58:18.983Z,31.70
2023-06-07T10:00:49.317Z,31.55
2023-06-07T10:03:18.494Z,32.12
2023-06-07T10:05:47.526Z,31.92
2023-06-07T10:08:18.188Z,32.03
2023-06-07T10:10:50.509Z,31.98
2023-06-07T10:13:21.929Z,32.01
2023-06-07T10:15:52.341Z,32.33
2023-06-07T10:18:27.978Z,32.74
2023-06-07T10:21:04.299Z,32.81
2023-06-07T10:24:03.550Z,32.82
2023-06-07T10:26:59.479Z,32.94
2023-06-07T10:29:43.583Z,32.85
2023-06-07T10:32:17.710Z,32.99
2023-06-07T10:34:48.401Z,32.93
2023-06-07T10:37:21.886Z,33.40
2023-06-07T10:39:51.528Z,33.47
2023-06-07T10:42:20.731Z,33.57
2023-06-07T10:44:49.906Z,33.81
2023-06-07T10:47:37.045Z,33.91
2023-06-07T10:50:06.687Z,33.89
2023-06-07T10:52:35.912Z,33.99
2023-06-07T10:55:25.750Z,34.20
2023-06-07T10:57:55.439Z,34.02
2023-06-07T11:00:27.519Z,34.07
2023-06-07T11:03:10.201Z,34.08
2023-06-07T11:06:00.530Z,34.18
2023-06-07T11:08:34.498Z,34.58
2023-06-07T11:11:04.906Z,34.68
2023-06-07T11:13:33.888Z,34.84
2023-06-07T11:16:25.672Z,35.29
2023-06-07T11:18:59.280Z,35.89
2023-06-07T11:21:31.881Z,36.19
2023-06-07T11:24:16.379Z,36.20
2023-06-07T11:26:45.872Z,36.38
2023-06-07T11:29:17.268Z,36.58
2023-06-07T11:31:51.730Z,36.88
2023-06-07T11:34:20.820Z,36.92
2023-06-07T11:36:50.301Z,37.82
2023-06-07T11:39:22.089Z,38.40
2023-06-07T11:41:50.997Z,38.85
2023-06-07T11:44:22.937Z,39.09
2023-06-07T11:46:52.141Z,39.41
2023-06-07T11:49:24.694Z,39.52
2023-06-07T11:51:58.758Z,39.98
2023-06-07T11:54:30.866Z,39.95
2023-06-07T11:57:00.745Z,39.90
2023-06-07T11:59:30.168Z,39.93
2023-06-07T12:02:01.703Z,40.16
2023-06-07T12:04:30.924Z,40.28
2023-06-07T12:07:00.070Z,40.51
2023-06-07T12:09:29.233Z,40.45
2023-06-07T12:11:59.279Z,40.39
2023-06-07T12:14:32.509Z,40.45
2023-06-07T12:17:02.595Z,40.23
2023-06-07T12:19:31.782Z,40.18
2023-06-07T12:22:09.675Z,40.26
2023-06-07T12:24:49.338Z,40.37
2023-06-07T12:27:18.462Z,40.18
2023-06-07T12:29:54.745Z,40.27
2023-06-07T12:32:24.543Z,40.22
2023-06-07T12:34:53.480Z,40.22
2023-06-07T12:37:22.351Z,40.44
2023-06-07T12:39:51.372Z,40.60
2023-06-07T12:42:20.610Z,40.58
2023-06-07T12:44:50.636Z,40.76
2023-06-07T12:47:19.472Z,41.00
2023-06-07T12:49:48.751Z,41.39
2023-06-07T12:52:17.857Z,41.48
2023-06-07T12:54:46.836Z,41.57
2023-06-07T12:57:15.782Z,41.65
2023-06-07T12:59:44.631Z,41.75
2023-06-07T13:02:14.925Z,41.86
2023-06-07T13:04:46.571Z,42.17
2023-06-07T13:07:15.817Z,42.18
2023-06-07T13:09:44.947Z,42.47
2023-06-07T13:12:14.111Z,42.72
2023-06-07T13:14:44.262Z,43.02
2023-06-07T13:17:14.906Z,43.23
2023-06-07T13:19:46.130Z,43.43
2023-06-07T13:22:15.477Z,43.54
2023-06-07T13:24:44.560Z,43.89
2023-06-07T13:27:13.518Z,43.97
2023-06-07T13:29:43.385Z,44.27
2023-06-07T13:32:12.606Z,44.51
2023-06-07T13:34:41.548Z,44.79
2023-06-07T13:37:10.856Z,45.07
2023-06-07T13:39:39.776Z,45.25
2023-06-07T13:42:09.194Z,45.33
2023-06-07T13:44:38.203Z,45.48
2023-06-07T13:47:07.960Z,45.48
2023-06-07T13:49:37.646Z,45.81
2023-06-07T13:52:07.186Z,45.68
2023-06-07T13:54:36.649Z,46.02
2023-06-07T13:57:06.381Z,46.16
2023-06-07T13:59:38.149Z,46.27
2023-06-07T14:02:12.911Z,46.66
2023-06-07T14:04:42.536Z,46.48
2023-06-07T14:07:11.557Z,46.61
2023-06-07T14:09:40.480Z,46.87
2023-06-07T14:12:13.326Z,46.84
2023-06-07T14:14:42.240Z,46.71
2023-06-07T14:17:11.196Z,46.85
2023-06-07T14:19:42.481Z,47.06
2023-06-07T14:22:11.593Z,46.96
2023-06-07T14:24:40.458Z,47.16
2023-06-07T14:27:09.479Z,47.13
2023-06-07T14:29:38.336Z,47.34
2023-06-07T14:32:07.709Z,47.42
2023-06-07T14:34:36.620Z,47.33
2023-06-07T14:37:05.704Z,47.80
2023-06-07T14:39:34.631Z,47.87
2023-06-07T14:42:03.707Z,47.88
2023-06-07T14:44:32.665Z,48.00
2023-06-07T14:47:01.917Z,48.25
2023-06-07T14:49:30.862Z,48.32
2023-06-07T14:51:59.805Z,48.44
2023-06-07T14:54:29.012Z,48.74
2023-06-07T14:56:58.103Z,48.75
2023-06-07T14:59:27.019Z,48.55
2023-06-07T15:01:57.001Z,48.61
2023-06-07T15:04:26.273Z,48.74
2023-06-07T15:06:55.149Z,48.74
2023-06-07T15:09:24.751Z,48.89
2023-06-07T15:11:53.704Z,49.05
2023-06-07T15:14:22.580Z,49.16
2023-06-07T15:16:51.617Z,49.18
2023-06-07T15:19:21.009Z,49.30
2023-06-07T15:21:51.385Z,49.40
2023-06-07T15:24:20.485Z,49.58
2023-06-07T15:26:49.476Z,49.90
2023-06-07T15:29:18.471Z,49.81
2023-06-07T15:31:47.640Z,50.07
2023-06-07T15:34:16.905Z,50.12
2023-06-07T15:36:45.807Z,50.13
2023-06-07T15:39:14.752Z,50.49
2023-06-07T15:41:52.202Z,50.74
2023-06-07T15:44:21.760Z,50.76
2023-06-07T15:46:50.992Z,50.72
2023-06-07T15:49:20.150Z,50.91
2023-06-07T15:51:50.528Z,51.05
2023-06-07T15:54:19.391Z,51.21
2023-06-07T15:56:48.476Z,51.32
2023-06-07T15:59:17.388Z,51.50
2023-06-07T16:01:46.989Z,51.43
2023-06-07T16:04:16.946Z,51.74
2023-06-07T16:06:46.618Z,51.59
2023-06-07T16:09:15.466Z,51.55
2023-06-07T16:11:44.707Z,51.67
2023-06-07T16:14:14.379Z,51.74
2023-06-07T16:16:46.131Z,52.02
2023-06-07T16:19:15.182Z,51.62
2023-06-07T16:21:45.207Z,52.02
2023-06-07T16:24:15.986Z,52.23
2023-06-07T16:26:44.955Z,52.15
2023-06-07T16:29:13.957Z,52.07
2023-06-07T16:31:43.581Z,52.39
2023-06-07T16:34:12.615Z,52.34
2023-06-07T16:36:42.251Z,52.57
2023-06-07T16:39:11.414Z,52.83
2023-06-07T16:41:42.238Z,53.00
2023-06-07T16:44:15.161Z,53.15
2023-06-07T16:46:46.727Z,53.17
2023-06-07T16:49:18.102Z,53.47
2023-06-07T16:51:47.055Z,53.33
2023-06-07T16:54:17.534Z,53.66
2023-06-07T16:56:46.448Z,53.76
2023-06-07T16:59:15.364Z,53.76
2023-06-07T17:01:45.251Z,53.73
2023-06-07T17:04:14.291Z,54.00
2023-06-07T17:06:43.302Z,53.92
2023-06-07T17:09:14.548Z,54.17
2023-06-07T17:11:43.399Z,54.31
2023-06-07T17:14:20.577Z,54.42
2023-06-07T17:16:49.546Z,54.30
2023-06-07T17:19:19.293Z,54.63
2023-06-07T17:21:48.611Z,54.54
2023-06-07T17:24:21.175Z,54.76
2023-06-07T17:26:50.320Z,54.70
2023-06-07T17:29:29.355Z,54.91
2023-06-07T17:31:59.524Z,54.84
2023-06-07T17:34:28.747Z,55.04
2023-06-07T17:36:57.689Z,55.04
2023-06-07T17:39:26.661Z,55.15
2023-06-07T17:41:55.513Z,55.48
2023-06-07T17:44:24.730Z,55.49
2023-06-07T17:46:53.848Z,55.66
2023-06-07T17:49:25.557Z,55.81
2023-06-07T17:51:56.785Z,56.07
2023-06-07T17:54:27.619Z,55.99
2023-06-07T17:56:56.673Z,56.03
2023-06-07T17:59:26.415Z,56.17
2023-06-07T18:01:56.500Z,56.41
2023-06-07T18:04:26.873Z,56.42
2023-06-07T18:06:55.836Z,56.30
2023-06-07T18:09:24.906Z,56.76
2023-06-07T18:11:53.809Z,56.67
2023-06-07T18:14:23.756Z,56.75
2023-06-07T18:16:52.640Z,57.00
2023-06-07T18:19:21.658Z,57.19
2023-06-07T18:21:51.955Z,57.31
2023-06-07T18:24:20.902Z,57.27
2023-06-07T18:26:49.785Z,57.18
2023-06-07T18:29:21.837Z,57.29
2023-06-07T18:31:51.329Z,57.27
2023-06-07T18:34:21.209Z,57.41
2023-06-07T18:36:53.383Z,57.77
2023-06-07T18:39:23.549Z,57.62
2023-06-07T18:41:52.838Z,57.62
2023-06-07T18:44:22.021Z,58.05
2023-06-07T18:46:51.111Z,58.04
2023-06-07T18:49:20.108Z,58.07
2023-06-07T18:51:49.140Z,58.16
2023-06-07T18:54:21.296Z,58.21
2023-06-07T18:56:50.386Z,58.23
2023-06-07T18:59:19.343Z,58.55
2023-06-07T19:01:53.132Z,58.63
2023-06-07T19:04:22.601Z,58.46
2023-06-07T19:06:52.278Z,58.52
2023-06-07T19:09:21.289Z,58.85
2023-06-07T19:11:50.166Z,58.82
2023-06-07T19:14:22.138Z,58.84
2023-06-07T19:16:51.104Z,58.76
2023-06-07T19:19:20.029Z,58.78
2023-06-07T19:21:49.082Z,59.10
2023-06-07T19:24:17.935Z,59.15
2023-06-07T19:26:46.935Z,58.99
2023-06-07T19:29:15.875Z,59.14
2023-06-07T19:31:46.694Z,58.94
2023-06-07T19:34:18.012Z,59.10
2023-06-07T19:36:46.936Z,58.77
2023-06-07T19:39:16.644Z,58.84
2023-06-07T19:41:45.639Z,59.14
2023-06-07T19:44:14.677Z,59.08
2023-06-07T19:46:43.627Z,59.10
2023-06-07T19:49:12.536Z,59.23
2023-06-07T19:51:41.553Z,59.60
2023-06-07T19:54:10.729Z,59.51
2023-06-07T19:56:41.087Z,59.72
2023-06-07T19:59:10.060Z,59.93
2023-06-07T20:01:39.719Z,59.62
2023-06-07T20:04:10.833Z,59.83
2023-06-07T20:06:41.153Z,59.76
2023-06-07T20:09:10.109Z,60.03
2023-06-07T20:11:39.126Z,60.32
2023-06-07T20:14:08.102Z,60.26
2023-06-07T20:16:37.191Z,60.44
2023-06-07T20:19:07.844Z,60.26
2023-06-07T20:21:37.765Z,60.42
2023-06-07T20:24:07.181Z,60.50
2023-06-07T20:26:36.215Z,60.63
2023-06-07T20:29:05.057Z,60.81
2023-06-07T20:31:34.111Z,60.78
2023-06-07T20:34:03.149Z,60.87
2023-06-07T20:36:32.033Z,60.92
2023-06-07T20:39:00.902Z,60.92
2023-06-07T20:41:29.818Z,61.01
2023-06-07T20:43:58.712Z,60.95
2023-06-07T20:46:27.958Z,60.84
2023-06-07T20:48:59.471Z,61.21
2023-06-07T20:51:28.695Z,61.07
2023-06-07T20:53:57.750Z,61.18
2023-06-07T20:56:27.934Z,61.31
2023-06-07T20:58:56.811Z,61.16
2023-06-07T21:01:27.742Z,61.41
2023-06-07T21:03:57.223Z,61.23
2023-06-07T21:06:26.464Z,61.39
2023-06-07T21:08:56.073Z,61.36
2023-06-07T21:11:24.996Z,61.35
2023-06-07T21:13:54.396Z,61.44
2023-06-07T21:16:23.351Z,61.44
2023-06-07T21:18:52.334Z,61.23
2023-06-07T21:21:21.634Z,60.83
2023-06-07T21:23:50.516Z,61.26
2023-06-07T21:26:19.446Z,61.47
2023-06-07T21:28:48.423Z,61.72
2023-06-07T21:31:17.543Z,61.96
2023-06-07T21:34:03.011Z,61.90
2023-06-07T21:36:32.117Z,61.75
2023-06-07T21:39:01.106Z,61.73
2023-06-07T21:41:30.137Z,61.78
2023-06-07T21:43:59.127Z,61.63
2023-06-07T21:46:28.194Z,61.88
2023-06-07T21:48:57.250Z,61.88
2023-06-07T21:51:26.303Z,61.56
2023-06-07T21:53:55.324Z,61.83
2023-06-07T21:56:24.359Z,61.58
2023-06-07T21:58:53.274Z,61.25
2023-06-07T22:01:23.296Z,61.43
2023-06-07T22:03:52.601Z,61.54
2023-06-07T22:06:21.591Z,61.39
2023-06-07T22:08:50.456Z,61.27
2023-06-07T22:11:19.413Z,61.47
2023-06-07T22:13:49.330Z,61.38
2023-06-07T22:16:20.495Z,61.27
2023-06-07T22:18:50.352Z,61.10
2023-06-07T22:21:24.719Z,61.00
2023-06-07T22:23:53.644Z,61.05
2023-06-07T22:26:22.804Z,60.77
2023-06-07T22:28:52.669Z,60.88
2023-06-07T22:31:21.639Z,60.50
2023-06-07T22:33:52.291Z,60.44
2023-06-07T22:36:22.702Z,60.33
2023-06-07T22:38:51.675Z,60.36
2023-06-07T22:41:21.685Z,60.38
2023-06-07T22:43:50.646Z,60.52
2023-06-07T22:46:19.737Z,60.37
2023-06-07T22:48:48.746Z,60.56
2023-06-07T22:51:19.498Z,60.42
2023-06-07T22:53:49.514Z,60.40
2023-06-07T22:56:18.737Z,60.09
2023-06-07T22:58:47.621Z,60.04
2023-06-07T23:01:17.608Z,59.92
2023-06-07T23:03:47.203Z,59.86
2023-06-07T23:06:16.126Z,59.78
2023-06-07T23:08:45.048Z,59.83
2023-06-07T23:11:13.995Z,59.49
2023-06-07T23:13:42.850Z,59.42
2023-06-07T23:16:12.145Z,59.29
2023-06-07T23:18:41.048Z,58.84
2023-06-07T23:21:10.703Z,58.94
2023-06-07T23:23:41.311Z,58.89
2023-06-07T23:26:11.236Z,58.77
2023-06-07T23:28:40.064Z,58.69
2023-06-07T23:31:08.902Z,58.52
2023-06-07T23:33:38.533Z,58.40
2023-06-07T23:36:08.279Z,58.34
2023-06-07T23:38:37.525Z,58.20
2023-06-07T23:41:06.706Z,58.20
2023-06-07T23:43:35.734Z,57.99
2023-06-07T23:46:05.670Z,57.85
2023-06-07T23:48:34.594Z,57.80
2023-06-07T23:51:03.559Z,57.54
2023-06-07T23:53:32.765Z,57.53
2023-06-07T23:56:01.954Z,57.42
2023-06-07T23:58:31.136Z,57.35
